sensor_id;sensor_type;location;lat;lon;timestamp;P1;durP1;ratioP1;P2;durP2;ratioP2
67344;SDS011;54230;52.402;6.276;2024-01-10T00:00:00;22.4;;;20.3;;
67344;SDS011;54230;52.402;6.276;2024-01-10T00:05:00;22.7;;;20.5;;
67344;SDS011;54230;52.402;6.276;2024-01-10T00:10:00;21.9;;;19.6;;
67344;SDS011;54230;52.402;6.276;2024-01-10T00:15:00;23.6;;;21.2;;
67344;SDS011;54230;52.402;6.276;2024-01-10T00:20:00;24.3;;;22.0;;
67344;SDS011;54230;52.402;6.276;2024-01-10T00:25:00;22.9;;;20.7;;
67344;SDS011;54230;52.402;6.276;2024-01-10T00:30:00;22.8;;;20.6;;
67344;SDS011;54230;52.402;6.276;2024-01-10T00:35:00;22.4;;;20.1;;
67344;SDS011;54230;52.402;6.276;2024-01-10T00:40:00;23.5;;;21.1;;
67344;SDS011;54230;52.402;6.276;2024-01-10T00:45:00;23.5;;;21.3;;
67344;SDS011;54230;52.402;6.276;2024-01-10T00:50:00;23.6;;;21.1;;
67344;SDS011;54230;52.402;6.276;2024-01-10T00:55:00;23.7;;;21.1;;
67344;SDS011;54230;52.402;6.276;2024-01-10T01:00:00;23.2;;;21.0;;
67344;SDS011;54230;52.402;6.276;2024-01-10T01:05:00;21.6;;;19.2;;
67344;SDS011;54230;52.402;6.276;2024-01-10T01:10:00;20.5;;;18.4;;
67344;SDS011;54230;52.402;6.276;2024-01-10T01:15:00;22.1;;;19.2;;
67344;SDS011;54230;52.402;6.276;2024-01-10T01:20:00;24.0;;;21.6;;
67344;SDS011;54230;52.402;6.276;2024-01-10T01:25:00;21.3;;;19.2;;
67344;SDS011;54230;52.402;6.276;2024-01-10T01:30:00;24.3;;;22.0;;
67344;SDS011;54230;52.402;6.276;2024-01-10T01:35:00;24.8;;;22.3;;
67344;SDS011;54230;52.402;6.276;2024-01-10T01:40:00;22.9;;;20.6;;
67344;SDS011;54230;52.402;6.276;2024-01-10T01:45:00;22.2;;;20.0;;
67344;SDS011;54230;52.402;6.276;2024-01-10T01:50:00;24.0;;;21.6;;
67344;SDS011;54230;52.402;6.276;2024-01-10T01:55:00;22.7;;;20.5;;
67344;SDS011;54230;52.402;6.276;2024-01-10T02:00:00;22.5;;;20.1;;
67344;SDS011;54230;52.402;6.276;2024-01-10T02:05:00;22.4;;;20.2;;
67344;SDS011;54230;52.402;6.276;2024-01-10T02:10:00;20.7;;;18.7;;
67344;SDS011;54230;52.402;6.276;2024-01-10T02:15:00;21.5;;;19.2;;
67344;SDS011;54230;52.402;6.276;2024-01-10T02:20:07;22.6;;;20.3;;
67344;SDS011;54230;52.402;6.276;2024-01-10T02:25:00;23.1;;;20.7;;
67344;SDS011;54230;52.402;6.276;2024-01-10T02:30:00;21.5;;;19.4;;
67344;SDS011;54230;52.402;6.276;2024-01-10T02:35:00;20.7;;;18.5;;
67344;SDS011;54230;52.402;6.276;2024-01-10T02:40:00;24.2;;;21.8;;
67344;SDS011;54230;52.402;6.276;2024-01-10T02:45:00;23.7;;;21.4;;
67344;SDS011;54230;52.402;6.276;2024-01-10T02:50:00;21.4;;;19.3;;
67344;SDS011;54230;52.402;6.276;2024-01-10T02:55:00;21.3;;;19.2;;
67344;SDS011;54230;52.402;6.276;2024-01-10T03:00:00;22.5;;;20.2;;
67344;SDS011;54230;52.402;6.276;2024-01-10T03:05:00;20.0;;;17.8;;
67344;SDS011;54230;52.402;6.276;2024-01-10T03:10:00;22.3;;;20.0;;
67344;SDS011;54230;52.402;6.276;2024-01-10T03:15:00;22.0;;;19.9;;
67344;SDS011;54230;52.402;6.276;2024-01-10T03:20:00;22.1;;;19.8;;
67344;SDS011;54230;52.402;6.276;2024-01-10T03:25:00;24.0;;;21.6;;
67344;SDS011;54230;52.402;6.276;2024-01-10T03:30:00;22.9;;;20.6;;
67344;SDS011;54230;52.402;6.276;2024-01-10T03:35:00;22.8;;;20.5;;
67344;SDS011;54230;52.402;6.276;2024-01-10T03:40:00;23.0;;;20.6;;
67344;SDS011;54230;52.402;6.276;2024-01-10T03:45:00;23.4;;;21.0;;
67344;SDS011;54230;52.402;6.276;2024-01-10T03:50:00;22.6;;;20.3;;
67344;SDS011;54230;52.402;6.276;2024-01-10T03:55:00;21.3;;;19.1;;
67344;SDS011;54230;52.402;6.276;2024-01-10T04:00:00;21.6;;;19.3;;
67344;SDS011;54230;52.402;6.276;2024-01-10T04:05:00;21.0;;;19.0;;
67344;SDS011;54230;52.402;6.276;2024-01-10T04:10:00;21.4;;;19.2;;
67344;SDS011;54230;52.402;6.276;2024-01-10T04:15:00;22.6;;;20.2;;
67344;SDS011;54230;52.402;6.276;2024-01-10T04:20:00;24.9;;;22.3;;
67344;SDS011;54230;52.402;6.276;2024-01-10T04:25:00;23.9;;;21.3;;
67344;SDS011;54230;52.402;6.276;2024-01-10T04:30:00;23.0;;;20.6;;
67344;SDS011;54230;52.402;6.276;2024-01-10T04:35:00;21.4;;;19.1;;
67344;SDS011;54230;52.402;6.276;2024-01-10T04:40:00;23.1;;;20.8;;
67344;SDS011;54230;52.402;6.276;2024-01-10T04:45:00;23.9;;;21.6;;
67344;SDS011;54230;52.402;6.276;2024-01-10T04:50:00;23.0;;;20.6;;
67344;SDS011;54230;52.402;6.276;2024-01-10T04:55:00;25.9;;;23.3;;
67344;SDS011;54230;52.402;6.276;2024-01-10T05:00:01;24.7;;;22.2;;
67344;SDS011;54230;52.402;6.276;2024-01-10T05:05:00;25.2;;;22.5;;
67344;SDS011;54230;52.402;6.276;2024-01-10T05:10:00;24.2;;;21.8;;
67344;SDS011;54230;52.402;6.276;2024-01-10T05:15:00;22.3;;;20.0;;
67344;SDS011;54230;52.402;6.276;2024-01-10T05:20:00;22.1;;;19.9;;
67344;SDS011;54230;52.402;6.276;2024-01-10T05:25:00;20.9;;;18.7;;
67344;SDS011;54230;52.402;6.276;2024-01-10T05:30:00;23.0;;;20.6;;
67344;SDS011;54230;52.402;6.276;2024-01-10T05:35:00;23.4;;;21.0;;
67344;SDS011;54230;52.402;6.276;2024-01-10T05:40:00;23.4;;;20.9;;
67344;SDS011;54230;52.402;6.276;2024-01-10T05:45:00;23.2;;;20.8;;
67344;SDS011;54230;52.402;6.276;2024-01-10T05:50:00;23.9;;;21.4;;
67344;SDS011;54230;52.402;6.276;2024-01-10T05:55:00;21.6;;;19.3;;
67344;SDS011;54230;52.402;6.276;2024-01-10T06:00:00;23.2;;;20.8;;
67344;SDS011;54230;52.402;6.276;2024-01-10T06:05:00;23.2;;;20.9;;
67344;SDS011;54230;52.402;6.276;2024-01-10T06:10:00;23.0;;;20.4;;
67344;SDS011;54230;52.402;6.276;2024-01-10T06:15:00;24.5;;;22.0;;
67344;SDS011;54230;52.402;6.276;2024-01-10T06:20:00;21.5;;;19.2;;
67344;SDS011;54230;52.402;6.276;2024-01-10T06:25:00;24.9;;;21.1;;
67344;SDS011;54230;52.402;6.276;2024-01-10T06:30:00;21.2;;;19.0;;
67344;SDS011;54230;52.402;6.276;2024-01-10T06:35:00;21.5;;;19.2;;
67344;SDS011;54230;52.402;6.276;2024-01-10T06:40:00;24.0;;;21.5;;
67344;SDS011;54230;52.402;6.276;2024-01-10T06:45:00;23.6;;;21.1;;
67344;SDS011;54230;52.402;6.276;2024-01-10T06:50:00;24.0;;;21.5;;
67344;SDS011;54230;52.402;6.276;2024-01-10T06:55:00;23.9;;;20.7;;
67344;SDS011;54230;52.402;6.276;2024-01-10T07:00:00;23.6;;;21.1;;
67344;SDS011;54230;52.402;6.276;2024-01-10T07:05:00;25.0;;;22.4;;
67344;SDS011;54230;52.402;6.276;2024-01-10T07:10:00;21.5;;;19.2;;
67344;SDS011;54230;52.402;6.276;2024-01-10T07:15:00;23.7;;;21.2;;
67344;SDS011;54230;52.402;6.276;2024-01-10T07:20:00;23.2;;;20.9;;
67344;SDS011;54230;52.402;6.276;2024-01-10T07:25:00;24.1;;;21.5;;
67344;SDS011;54230;52.402;6.276;2024-01-10T07:30:00;24.0;;;21.5;;
67344;SDS011;54230;52.402;6.276;2024-01-10T07:35:00;24.4;;;22.0;;
67344;SDS011;54230;52.402;6.276;2024-01-10T07:40:00;24.9;;;22.2;;
67344;SDS011;54230;52.402;6.276;2024-01-10T07:45:00;24.8;;;22.2;;
67344;SDS011;54230;52.402;6.276;2024-01-10T07:50:00;24.8;;;22.3;;
67344;SDS011;54230;52.402;6.276;2024-01-10T07:55:00;24.8;;;22.1;;
67344;SDS011;54230;52.402;6.276;2024-01-10T08:00:00;25.4;;;22.0;;
67344;SDS011;54230;52.402;6.276;2024-01-10T08:05:00;25.6;;;22.9;;
67344;SDS011;54230;52.402;6.276;2024-01-10T08:10:00;24.0;;;21.4;;
67344;SDS011;54230;52.402;6.276;2024-01-10T08:15:00;23.2;;;20.7;;
67344;SDS011;54230;52.402;6.276;2024-01-10T08:20:00;24.8;;;21.0;;
67344;SDS011;54230;52.402;6.276;2024-01-10T08:25:00;24.0;;;20.9;;
67344;SDS011;54230;52.402;6.276;2024-01-10T08:30:00;23.7;;;21.2;;
67344;SDS011;54230;52.402;6.276;2024-01-10T08:35:00;27.0;;;24.2;;
67344;SDS011;54230;52.402;6.276;2024-01-10T08:40:00;24.1;;;21.0;;
67344;SDS011;54230;52.402;6.276;2024-01-10T08:45:00;25.9;;;22.5;;
67344;SDS011;54230;52.402;6.276;2024-01-10T08:50:00;25.3;;;22.5;;
67344;SDS011;54230;52.402;6.276;2024-01-10T08:55:00;23.9;;;21.4;;
67344;SDS011;54230;52.402;6.276;2024-01-10T09:00:00;24.9;;;22.1;;
67344;SDS011;54230;52.402;6.276;2024-01-10T09:05:00;25.0;;;22.4;;
67344;SDS011;54230;52.402;6.276;2024-01-10T09:10:00;22.9;;;20.4;;
67344;SDS011;54230;52.402;6.276;2024-01-10T09:15:00;24.7;;;22.1;;
67344;SDS011;54230;52.402;6.276;2024-01-10T09:20:00;25.9;;;23.2;;
67344;SDS011;54230;52.402;6.276;2024-01-10T09:25:00;23.4;;;21.0;;
67344;SDS011;54230;52.402;6.276;2024-01-10T09:30:00;24.1;;;21.1;;
67344;SDS011;54230;52.402;6.276;2024-01-10T09:35:00;25.1;;;22.5;;
67344;SDS011;54230;52.402;6.276;2024-01-10T09:40:00;25.0;;;22.4;;
67344;SDS011;54230;52.402;6.276;2024-01-10T09:45:00;23.2;;;20.9;;
67344;SDS011;54230;52.402;6.276;2024-01-10T09:50:00;26.3;;;23.7;;
67344;SDS011;54230;52.402;6.276;2024-01-10T09:55:00;24.7;;;22.0;;
67344;SDS011;54230;52.402;6.276;2024-01-10T10:00:00;24.3;;;21.8;;
67344;SDS011;54230;52.402;6.276;2024-01-10T10:05:01;23.5;;;21.0;;
67344;SDS011;54230;52.402;6.276;2024-01-10T10:10:00;24.7;;;22.0;;
67344;SDS011;54230;52.402;6.276;2024-01-10T10:15:01;26.9;;;21.3;;
67344;SDS011;54230;52.402;6.276;2024-01-10T10:20:02;25.5;;;23.0;;
67344;SDS011;54230;52.402;6.276;2024-01-10T10:25:00;25.7;;;23.0;;
67344;SDS011;54230;52.402;6.276;2024-01-10T10:30:00;26.0;;;23.4;;
67344;SDS011;54230;52.402;6.276;2024-01-10T10:35:00;25.3;;;22.3;;
67344;SDS011;54230;52.402;6.276;2024-01-10T10:40:00;24.6;;;21.9;;
67344;SDS011;54230;52.402;6.276;2024-01-10T10:45:02;23.1;;;20.7;;
67344;SDS011;54230;52.402;6.276;2024-01-10T10:50:00;25.3;;;22.3;;
67344;SDS011;54230;52.402;6.276;2024-01-10T10:55:00;26.6;;;23.8;;
67344;SDS011;54230;52.402;6.276;2024-01-10T11:00:00;26.5;;;23.8;;
67344;SDS011;54230;52.402;6.276;2024-01-10T11:05:00;24.9;;;22.4;;
67344;SDS011;54230;52.402;6.276;2024-01-10T11:10:00;26.3;;;23.7;;
67344;SDS011;54230;52.402;6.276;2024-01-10T11:15:04;26.0;;;23.4;;
67344;SDS011;54230;52.402;6.276;2024-01-10T11:25:00;22.7;;;20.4;;
67344;SDS011;54230;52.402;6.276;2024-01-10T11:30:00;24.6;;;22.0;;
67344;SDS011;54230;52.402;6.276;2024-01-10T11:35:00;24.4;;;21.9;;
67344;SDS011;54230;52.402;6.276;2024-01-10T11:40:00;22.8;;;20.4;;
67344;SDS011;54230;52.402;6.276;2024-01-10T11:45:00;23.1;;;19.9;;
67344;SDS011;54230;52.402;6.276;2024-01-10T11:50:01;24.5;;;22.0;;
67344;SDS011;54230;52.402;6.276;2024-01-10T11:55:00;23.4;;;21.1;;
67344;SDS011;54230;52.402;6.276;2024-01-10T12:00:00;22.5;;;20.3;;
67344;SDS011;54230;52.402;6.276;2024-01-10T12:05:00;23.5;;;20.6;;
67344;SDS011;54230;52.402;6.276;2024-01-10T12:10:00;23.3;;;21.0;;
67344;SDS011;54230;52.402;6.276;2024-01-10T12:15:00;24.5;;;21.9;;
67344;SDS011;54230;52.402;6.276;2024-01-10T12:20:00;22.6;;;20.2;;
67344;SDS011;54230;52.402;6.276;2024-01-10T12:25:03;22.9;;;20.6;;
67344;SDS011;54230;52.402;6.276;2024-01-10T12:30:00;21.2;;;19.0;;
67344;SDS011;54230;52.402;6.276;2024-01-10T12:35:00;22.0;;;19.2;;
67344;SDS011;54230;52.402;6.276;2024-01-10T12:40:00;24.3;;;21.9;;
67344;SDS011;54230;52.402;6.276;2024-01-10T12:45:00;23.4;;;21.1;;
67344;SDS011;54230;52.402;6.276;2024-01-10T12:50:00;24.5;;;22.1;;
67344;SDS011;54230;52.402;6.276;2024-01-10T12:55:00;23.0;;;20.7;;
67344;SDS011;54230;52.402;6.276;2024-01-10T13:00:00;21.5;;;19.4;;
67344;SDS011;54230;52.402;6.276;2024-01-10T13:05:00;24.2;;;21.8;;
67344;SDS011;54230;52.402;6.276;2024-01-10T13:10:00;22.1;;;19.8;;
67344;SDS011;54230;52.402;6.276;2024-01-10T13:15:00;24.2;;;21.9;;
67344;SDS011;54230;52.402;6.276;2024-01-10T13:20:00;23.6;;;21.2;;
67344;SDS011;54230;52.402;6.276;2024-01-10T13:25:00;22.1;;;19.8;;
67344;SDS011;54230;52.402;6.276;2024-01-10T13:30:00;22.2;;;20.0;;
67344;SDS011;54230;52.402;6.276;2024-01-10T13:35:00;22.5;;;20.3;;
67344;SDS011;54230;52.402;6.276;2024-01-10T13:40:00;23.4;;;21.0;;
67344;SDS011;54230;52.402;6.276;2024-01-10T13:45:00;22.0;;;19.8;;
67344;SDS011;54230;52.402;6.276;2024-01-10T13:50:00;22.2;;;20.0;;
67344;SDS011;54230;52.402;6.276;2024-01-10T13:55:00;22.8;;;20.5;;
67344;SDS011;54230;52.402;6.276;2024-01-10T14:00:00;23.4;;;21.0;;
67344;SDS011;54230;52.402;6.276;2024-01-10T14:05:00;21.9;;;19.7;;
67344;SDS011;54230;52.402;6.276;2024-01-10T14:10:00;21.5;;;19.3;;
67344;SDS011;54230;52.402;6.276;2024-01-10T14:15:00;23.4;;;21.0;;
67344;SDS011;54230;52.402;6.276;2024-01-10T14:20:00;23.4;;;21.1;;
67344;SDS011;54230;52.402;6.276;2024-01-10T14:25:00;20.2;;;18.1;;
67344;SDS011;54230;52.402;6.276;2024-01-10T14:30:00;22.3;;;20.0;;
67344;SDS011;54230;52.402;6.276;2024-01-10T14:35:00;23.5;;;20.7;;
67344;SDS011;54230;52.402;6.276;2024-01-10T14:40:00;20.9;;;18.7;;
67344;SDS011;54230;52.402;6.276;2024-01-10T14:45:00;20.7;;;18.6;;
67344;SDS011;54230;52.402;6.276;2024-01-10T14:50:00;20.3;;;18.3;;
67344;SDS011;54230;52.402;6.276;2024-01-10T14:55:00;22.7;;;20.4;;
67344;SDS011;54230;52.402;6.276;2024-01-10T15:00:00;23.5;;;21.2;;
67344;SDS011;54230;52.402;6.276;2024-01-10T15:05:00;21.5;;;19.5;;
67344;SDS011;54230;52.402;6.276;2024-01-10T15:10:00;20.6;;;18.4;;
67344;SDS011;54230;52.402;6.276;2024-01-10T15:15:00;21.8;;;19.6;;
67344;SDS011;54230;52.402;6.276;2024-01-10T15:20:00;23.1;;;20.9;;
67344;SDS011;54230;52.402;6.276;2024-01-10T15:25:00;22.6;;;20.3;;
67344;SDS011;54230;52.402;6.276;2024-01-10T15:30:00;24.6;;;22.2;;
67344;SDS011;54230;52.402;6.276;2024-01-10T15:35:00;22.7;;;20.4;;
67344;SDS011;54230;52.402;6.276;2024-01-10T15:40:00;20.8;;;18.8;;
67344;SDS011;54230;52.402;6.276;2024-01-10T15:45:00;22.8;;;20.6;;
67344;SDS011;54230;52.402;6.276;2024-01-10T15:50:00;21.0;;;18.9;;
67344;SDS011;54230;52.402;6.276;2024-01-10T15:55:00;23.1;;;20.8;;
67344;SDS011;54230;52.402;6.276;2024-01-10T16:00:00;23.2;;;20.9;;
67344;SDS011;54230;52.402;6.276;2024-01-10T16:05:00;22.1;;;20.0;;
67344;SDS011;54230;52.402;6.276;2024-01-10T16:10:00;22.0;;;19.8;;
67344;SDS011;54230;52.402;6.276;2024-01-10T16:15:00;24.0;;;21.6;;
67344;SDS011;54230;52.402;6.276;2024-01-10T16:20:00;22.3;;;20.0;;
67344;SDS011;54230;52.402;6.276;2024-01-10T16:25:00;22.0;;;19.9;;
67344;SDS011;54230;52.402;6.276;2024-01-10T16:30:00;23.4;;;21.2;;
67344;SDS011;54230;52.402;6.276;2024-01-10T16:35:00;21.7;;;19.7;;
67344;SDS011;54230;52.402;6.276;2024-01-10T16:40:00;22.9;;;20.6;;
67344;SDS011;54230;52.402;6.276;2024-01-10T16:45:00;23.6;;;21.1;;
67344;SDS011;54230;52.402;6.276;2024-01-10T16:50:00;24.0;;;20.7;;
67344;SDS011;54230;52.402;6.276;2024-01-10T16:55:00;22.6;;;20.3;;
67344;SDS011;54230;52.402;6.276;2024-01-10T17:00:00;22.8;;;20.5;;
67344;SDS011;54230;52.402;6.276;2024-01-10T17:05:00;23.4;;;21.2;;
67344;SDS011;54230;52.402;6.276;2024-01-10T17:10:00;22.9;;;20.7;;
67344;SDS011;54230;52.402;6.276;2024-01-10T17:15:00;23.4;;;21.2;;
67344;SDS011;54230;52.402;6.276;2024-01-10T17:20:00;21.6;;;19.5;;
67344;SDS011;54230;52.402;6.276;2024-01-10T17:25:00;21.5;;;19.3;;
67344;SDS011;54230;52.402;6.276;2024-01-10T17:30:00;24.1;;;21.7;;
67344;SDS011;54230;52.402;6.276;2024-01-10T17:35:00;22.8;;;20.5;;
67344;SDS011;54230;52.402;6.276;2024-01-10T17:40:00;24.8;;;22.5;;
67344;SDS011;54230;52.402;6.276;2024-01-10T17:45:00;22.8;;;20.5;;
67344;SDS011;54230;52.402;6.276;2024-01-10T17:50:00;26.0;;;23.6;;
67344;SDS011;54230;52.402;6.276;2024-01-10T17:55:00;23.3;;;20.9;;
67344;SDS011;54230;52.402;6.276;2024-01-10T18:00:00;20.8;;;18.6;;
67344;SDS011;54230;52.402;6.276;2024-01-10T18:05:00;22.6;;;20.3;;
67344;SDS011;54230;52.402;6.276;2024-01-10T18:10:00;22.5;;;20.2;;
67344;SDS011;54230;52.402;6.276;2024-01-10T18:15:00;22.8;;;20.5;;
67344;SDS011;54230;52.402;6.276;2024-01-10T18:20:00;23.2;;;20.8;;
67344;SDS011;54230;52.402;6.276;2024-01-10T18:25:00;23.5;;;21.1;;
67344;SDS011;54230;52.402;6.276;2024-01-10T18:30:00;25.2;;;22.7;;
67344;SDS011;54230;52.402;6.276;2024-01-10T18:35:00;25.0;;;22.3;;
67344;SDS011;54230;52.402;6.276;2024-01-10T18:40:00;22.7;;;19.5;;
67344;SDS011;54230;52.402;6.276;2024-01-10T18:45:00;26.2;;;23.5;;
67344;SDS011;54230;52.402;6.276;2024-01-10T18:50:00;24.7;;;21.8;;
67344;SDS011;54230;52.402;6.276;2024-01-10T18:55:00;28.5;;;23.8;;
67344;SDS011;54230;52.402;6.276;2024-01-10T19:00:00;27.4;;;24.1;;
67344;SDS011;54230;52.402;6.276;2024-01-10T19:05:00;26.9;;;24.1;;
67344;SDS011;54230;52.402;6.276;2024-01-10T19:10:00;26.3;;;23.2;;
67344;SDS011;54230;52.402;6.276;2024-01-10T19:15:00;26.5;;;23.7;;
67344;SDS011;54230;52.402;6.276;2024-01-10T19:20:00;26.6;;;23.0;;
67344;SDS011;54230;52.402;6.276;2024-01-10T19:25:00;25.9;;;23.2;;
67344;SDS011;54230;52.402;6.276;2024-01-10T19:30:00;29.4;;;23.9;;
67344;SDS011;54230;52.402;6.276;2024-01-10T19:35:00;27.0;;;24.1;;
67344;SDS011;54230;52.402;6.276;2024-01-10T19:40:00;29.5;;;25.8;;
67344;SDS011;54230;52.402;6.276;2024-01-10T19:45:00;29.1;;;26.0;;
67344;SDS011;54230;52.402;6.276;2024-01-10T19:50:00;25.6;;;22.7;;
67344;SDS011;54230;52.402;6.276;2024-01-10T19:55:00;27.8;;;24.8;;
67344;SDS011;54230;52.402;6.276;2024-01-10T20:00:00;26.4;;;23.5;;
67344;SDS011;54230;52.402;6.276;2024-01-10T20:05:00;29.2;;;26.0;;
67344;SDS011;54230;52.402;6.276;2024-01-10T20:10:00;28.3;;;23.9;;
67344;SDS011;54230;52.402;6.276;2024-01-10T20:15:00;27.6;;;24.7;;
67344;SDS011;54230;52.402;6.276;2024-01-10T20:20:00;28.6;;;23.9;;
67344;SDS011;54230;52.402;6.276;2024-01-10T20:25:00;27.5;;;23.9;;
67344;SDS011;54230;52.402;6.276;2024-01-10T20:30:00;28.9;;;25.8;;
67344;SDS011;54230;52.402;6.276;2024-01-10T20:35:00;31.7;;;25.9;;
67344;SDS011;54230;52.402;6.276;2024-01-10T20:40:00;30.7;;;25.0;;
67344;SDS011;54230;52.402;6.276;2024-01-10T20:45:00;29.0;;;25.7;;
67344;SDS011;54230;52.402;6.276;2024-01-10T20:50:00;30.4;;;26.4;;
67344;SDS011;54230;52.402;6.276;2024-01-10T20:55:00;29.2;;;25.0;;
67344;SDS011;54230;52.402;6.276;2024-01-10T21:00:00;30.9;;;26.2;;
67344;SDS011;54230;52.402;6.276;2024-01-10T21:05:00;30.3;;;25.7;;
67344;SDS011;54230;52.402;6.276;2024-01-10T21:10:00;28.1;;;24.9;;
67344;SDS011;54230;52.402;6.276;2024-01-10T21:15:00;29.4;;;24.4;;
67344;SDS011;54230;52.402;6.276;2024-01-10T21:20:00;29.7;;;26.5;;
67344;SDS011;54230;52.402;6.276;2024-01-10T21:25:00;31.2;;;26.6;;
67344;SDS011;54230;52.402;6.276;2024-01-10T21:30:00;30.8;;;26.2;;
67344;SDS011;54230;52.402;6.276;2024-01-10T21:35:00;30.1;;;25.3;;
67344;SDS011;54230;52.402;6.276;2024-01-10T21:40:00;32.8;;;26.5;;
67344;SDS011;54230;52.402;6.276;2024-01-10T21:45:00;30.0;;;25.4;;
67344;SDS011;54230;52.402;6.276;2024-01-10T21:50:00;29.5;;;24.4;;
67344;SDS011;54230;52.402;6.276;2024-01-10T21:55:00;29.7;;;24.4;;
67344;SDS011;54230;52.402;6.276;2024-01-10T22:00:00;31.9;;;24.9;;
67344;SDS011;54230;52.402;6.276;2024-01-10T22:05:00;29.6;;;25.7;;
67344;SDS011;54230;52.402;6.276;2024-01-10T22:10:00;30.8;;;26.5;;
67344;SDS011;54230;52.402;6.276;2024-01-10T22:15:00;31.2;;;26.9;;
67344;SDS011;54230;52.402;6.276;2024-01-10T22:20:00;33.5;;;27.1;;
67344;SDS011;54230;52.402;6.276;2024-01-10T22:25:00;32.0;;;25.8;;
67344;SDS011;54230;52.402;6.276;2024-01-10T22:30:00;32.1;;;26.5;;
67344;SDS011;54230;52.402;6.276;2024-01-10T22:35:00;32.5;;;25.5;;
67344;SDS011;54230;52.402;6.276;2024-01-10T22:40:00;30.2;;;25.2;;
67344;SDS011;54230;52.402;6.276;2024-01-10T22:45:00;33.2;;;26.7;;
67344;SDS011;54230;52.402;6.276;2024-01-10T22:50:00;33.4;;;25.9;;
67344;SDS011;54230;52.402;6.276;2024-01-10T22:55:00;31.5;;;27.2;;
67344;SDS011;54230;52.402;6.276;2024-01-10T23:00:00;30.0;;;25.6;;
67344;SDS011;54230;52.402;6.276;2024-01-10T23:05:00;32.9;;;26.1;;
67344;SDS011;54230;52.402;6.276;2024-01-10T23:10:00;33.9;;;26.0;;
67344;SDS011;54230;52.402;6.276;2024-01-10T23:15:00;33.0;;;26.0;;
67344;SDS011;54230;52.402;6.276;2024-01-10T23:20:00;37.7;;;27.0;;
67344;SDS011;54230;52.402;6.276;2024-01-10T23:25:00;34.1;;;27.5;;
67344;SDS011;54230;52.402;6.276;2024-01-10T23:30:00;32.2;;;24.7;;
67344;SDS011;54230;52.402;6.276;2024-01-10T23:35:00;34.1;;;27.2;;
67344;SDS011;54230;52.402;6.276;2024-01-10T23:40:00;34.0;;;27.3;;
67344;SDS011;54230;52.402;6.276;2024-01-10T23:45:00;34.7;;;26.9;;
67344;SDS011;54230;52.402;6.276;2024-01-10T23:50:00;32.7;;;26.1;;
67344;SDS011;54230;52.402;6.276;2024-01-10T23:55:00;32.7;;;26.2;;
